Simon Bolivar International Airport
SEGU : now visible

Airfield :











YOU CAN JOIN US ON...

 
LOGIN :

Register | Disclaimer

   EN    FR    IT 

 









Legend :    VFR   Marginal VFR   IFR   Intensive IFR   Very Intensive IFR
Visi :
Ceiling :
>= 8 km
>= 3000ft
5 to 8 km
1000 to 3000 ft
1500m to 5 km
500 to 1000 ft
800 to 1500m
200 to 500 ft
< 800m
< 200 ft
Symbols :   Thunderstorms  Fog  Heavy snow  Heavy precipitations  Wind > 20 kt






- Airport Elevation : 19 ft
- IATA code : GYE


SEGU - Simon Bolivar International

CURRENT METAR :
  • 191500Z 07005KT 040V100 9999 FEW023 SCT100 32/20 Q1010 NOSIG RMK A2982

EXPIRED METARs :
  • 191400Z VRB02KT 9999 FEW040 30/20 Q1009 NOSIG RMK A2982
  • 191300Z 35003KT 280V030 9999 FEW033 28/20 Q1009 NOSIG RMK A2980

TAF SEGU
Valid from the 19 at 12:00 until the 20 at 12:00 UTC


190915Z 1912/2012 20005KT 9999 SCT023 BKN100
BECMG 1914/1915 FEW023 SCT100
BECMG 1917/1918 04005KT
FM192300 20012KT 9999 BKN023 BKN100
BECMG 2007/2008 FEW010 BKN020 BKN090 TX33/1919Z TN24/2010Z



MET'MAP, your aeronautical weather chart ! - Copyright ORBIFLY December 2007 - Disclaimer

ORBIFLY MET'MAP TEAM :

Programming & Development : Alexandra Zaïnal
Concept & original design : Baudouin d'Aumeries
Assistance for programming : Marc-Olivier Méhu
Technical & hardware support : Manuel Goepfert

Contact : metmap@orbifly.com




SOURCES & CREDITS :

   NOAA       Earth
Advisory